sensor_id;sensor_type;location;lat;lon;timestamp;pressure;altitude;pressure_sealevel;temperature;humidity
71043;BME280;58696;52.134;5.500;2023-05-01T00:01:41;101993.59;;;9.23;78.40
71043;BME280;58696;52.134;5.500;2023-05-01T00:04:08;101991.72;;;9.25;78.33
71043;BME280;58696;52.134;5.500;2023-05-01T00:06:35;101988.63;;;9.21;78.18
71043;BME280;58696;52.134;5.500;2023-05-01T00:09:02;101992.94;;;9.21;78.16
71043;BME280;58696;52.134;5.500;2023-05-01T00:11:36;101981.88;;;9.20;78.14
71043;BME280;58696;52.134;5.500;2023-05-01T00:14:02;101980.13;;;9.21;77.81
71043;BME280;58696;52.134;5.500;2023-05-01T00:16:29;101976.75;;;9.20;78.27
71043;BME280;58696;52.134;5.500;2023-05-01T00:18:56;101976.22;;;9.17;78.71
71043;BME280;58696;52.134;5.500;2023-05-01T00:21:23;101973.00;;;9.15;78.64
71043;BME280;58696;52.134;5.500;2023-05-01T00:23:49;101967.50;;;9.10;78.66
71043;BME280;58696;52.134;5.500;2023-05-01T00:26:16;101954.94;;;9.07;78.92
71043;BME280;58696;52.134;5.500;2023-05-01T00:28:43;101964.72;;;9.03;79.38
71043;BME280;58696;52.134;5.500;2023-05-01T00:31:09;101964.84;;;9.02;79.38
71043;BME280;58696;52.134;5.500;2023-05-01T00:33:36;101956.63;;;8.98;79.25
71043;BME280;58696;52.134;5.500;2023-05-01T00:36:05;101953.38;;;8.96;79.54
71043;BME280;58696;52.134;5.500;2023-05-01T00:38:34;101951.13;;;8.93;79.72
71043;BME280;58696;52.134;5.500;2023-05-01T00:41:05;101953.69;;;8.93;79.65
71043;BME280;58696;52.134;5.500;2023-05-01T00:43:34;101949.38;;;8.93;79.64
71043;BME280;58696;52.134;5.500;2023-05-01T00:46:01;101944.81;;;8.87;79.38
71043;BME280;58696;52.134;5.500;2023-05-01T00:48:30;101945.91;;;8.85;79.25
71043;BME280;58696;52.134;5.500;2023-05-01T00:51:00;101926.34;;;8.84;79.46
71043;BME280;58696;52.134;5.500;2023-05-01T00:53:29;101923.78;;;8.84;79.12
71043;BME280;58696;52.134;5.500;2023-05-01T00:55:57;101921.53;;;8.81;78.91
71043;BME280;58696;52.134;5.500;2023-05-01T00:58:26;101925.31;;;8.77;79.21
71043;BME280;58696;52.134;5.500;2023-05-01T01:00:55;101919.66;;;8.73;79.51
71043;BME280;58696;52.134;5.500;2023-05-01T01:03:25;101919.13;;;8.69;79.84
71043;BME280;58696;52.134;5.500;2023-05-01T01:08:39;101907.47;;;8.57;80.40
71043;BME280;58696;52.134;5.500;2023-05-01T01:11:22;101898.44;;;8.53;80.35
71043;BME280;58696;52.134;5.500;2023-05-01T01:14:01;101899.16;;;8.46;80.43
71043;BME280;58696;52.134;5.500;2023-05-01T01:16:43;101897.69;;;8.43;80.42
71043;BME280;58696;52.134;5.500;2023-05-01T01:22:02;101888.94;;;8.36;80.61
71043;BME280;58696;52.134;5.500;2023-05-01T01:25:05;101881.53;;;8.33;80.34
71043;BME280;58696;52.134;5.500;2023-05-01T01:36:08;101869.41;;;8.25;81.09
71043;BME280;58696;52.134;5.500;2023-05-01T01:38:45;101864.84;;;8.19;80.88
71043;BME280;58696;52.134;5.500;2023-05-01T01:41:17;101867.97;;;8.13;81.21
71043;BME280;58696;52.134;5.500;2023-05-01T01:43:54;101857.75;;;8.13;81.36
71043;BME280;58696;52.134;5.500;2023-05-01T01:46:24;101855.34;;;8.11;81.57
71043;BME280;58696;52.134;5.500;2023-05-01T01:48:54;101851.44;;;8.07;81.86
71043;BME280;58696;52.134;5.500;2023-05-01T01:51:24;101843.91;;;8.06;82.06
71043;BME280;58696;52.134;5.500;2023-05-01T01:53:55;101841.19;;;8.07;82.05
71043;BME280;58696;52.134;5.500;2023-05-01T01:56:30;101839.44;;;8.08;81.87
71043;BME280;58696;52.134;5.500;2023-05-01T01:59:01;101823.41;;;8.06;81.51
71043;BME280;58696;52.134;5.500;2023-05-01T02:01:32;101830.28;;;8.05;81.59
71043;BME280;58696;52.134;5.500;2023-05-01T02:04:00;101822.88;;;8.02;81.77
71043;BME280;58696;52.134;5.500;2023-05-01T02:06:30;101822.22;;;8.00;82.33
71043;BME280;58696;52.134;5.500;2023-05-01T02:08:59;101820.75;;;7.98;82.35
71043;BME280;58696;52.134;5.500;2023-05-01T02:11:32;101819.03;;;7.88;82.53
71043;BME280;58696;52.134;5.500;2023-05-01T02:14:04;101812.72;;;7.83;83.20
71043;BME280;58696;52.134;5.500;2023-05-01T02:16:34;101810.44;;;7.80;83.32
71043;BME280;58696;52.134;5.500;2023-05-01T02:19:06;101805.97;;;7.82;83.58
71043;BME280;58696;52.134;5.500;2023-05-01T02:21:35;101809.78;;;7.78;83.64
71043;BME280;58696;52.134;5.500;2023-05-01T02:24:06;101797.00;;;7.78;83.73
71043;BME280;58696;52.134;5.500;2023-05-01T02:26:41;101800.84;;;7.82;83.53
71043;BME280;58696;52.134;5.500;2023-05-01T02:29:09;101798.06;;;7.75;83.28
71043;BME280;58696;52.134;5.500;2023-05-01T02:31:35;101800.53;;;7.67;83.01
71043;BME280;58696;52.134;5.500;2023-05-01T02:34:02;101797.28;;;7.65;82.92
71043;BME280;58696;52.134;5.500;2023-05-01T02:36:31;101793.91;;;7.64;82.85
71043;BME280;58696;52.134;5.500;2023-05-01T02:38:59;101790.28;;;7.67;83.20
71043;BME280;58696;52.134;5.500;2023-05-01T02:41:27;101785.97;;;7.68;83.41
71043;BME280;58696;52.134;5.500;2023-05-01T02:44:00;101791.66;;;7.61;83.80
71043;BME280;58696;52.134;5.500;2023-05-01T02:46:30;101786.94;;;7.57;83.74
71043;BME280;58696;52.134;5.500;2023-05-01T02:49:00;101781.94;;;7.55;84.03
71043;BME280;58696;52.134;5.500;2023-05-01T02:51:30;101781.69;;;7.58;83.96
71043;BME280;58696;52.134;5.500;2023-05-01T02:53:58;101776.41;;;7.60;84.30
71043;BME280;58696;52.134;5.500;2023-05-01T02:56:25;101778.03;;;7.61;84.35
71043;BME280;58696;52.134;5.500;2023-05-01T02:58:57;101774.13;;;7.67;84.99
71043;BME280;58696;52.134;5.500;2023-05-01T03:01:26;101762.53;;;7.72;84.50
71043;BME280;58696;52.134;5.500;2023-05-01T03:03:56;101765.59;;;7.76;84.80
71043;BME280;58696;52.134;5.500;2023-05-01T03:06:23;101764.94;;;7.74;84.53
71043;BME280;58696;52.134;5.500;2023-05-01T03:08:52;101758.63;;;7.68;84.74
71043;BME280;58696;52.134;5.500;2023-05-01T03:11:19;101756.72;;;7.70;85.02
71043;BME280;58696;52.134;5.500;2023-05-01T03:13:47;101757.78;;;7.77;84.80
71043;BME280;58696;52.134;5.500;2023-05-01T03:16:13;101750.47;;;7.82;84.37
71043;BME280;58696;52.134;5.500;2023-05-01T03:18:40;101749.25;;;7.86;84.41
71043;BME280;58696;52.134;5.500;2023-05-01T03:21:09;101745.91;;;7.86;83.88
71043;BME280;58696;52.134;5.500;2023-05-01T03:23:40;101742.53;;;7.85;83.64
71043;BME280;58696;52.134;5.500;2023-05-01T03:26:07;101745.63;;;7.89;83.94
71043;BME280;58696;52.134;5.500;2023-05-01T03:28:33;101735.09;;;7.92;84.40
71043;BME280;58696;52.134;5.500;2023-05-01T03:31:00;101732.63;;;8.00;83.91
71043;BME280;58696;52.134;5.500;2023-05-01T03:33:26;101733.28;;;8.02;83.73
71043;BME280;58696;52.134;5.500;2023-05-01T03:36:05;101734.03;;;8.12;84.14
71043;BME280;58696;52.134;5.500;2023-05-01T03:38:36;101721.63;;;8.17;84.72
71043;BME280;58696;52.134;5.500;2023-05-01T03:41:05;101723.53;;;8.15;84.82
71043;BME280;58696;52.134;5.500;2023-05-01T03:43:34;101719.84;;;8.18;85.11
71043;BME280;58696;52.134;5.500;2023-05-01T03:46:00;101728.06;;;8.22;85.01
71043;BME280;58696;52.134;5.500;2023-05-01T03:48:32;101725.22;;;8.25;84.69
71043;BME280;58696;52.134;5.500;2023-05-01T03:50:58;101722.66;;;8.25;84.74
71043;BME280;58696;52.134;5.500;2023-05-01T03:53:27;101707.59;;;8.22;84.86
71043;BME280;58696;52.134;5.500;2023-05-01T03:55:56;101709.34;;;8.21;85.34
71043;BME280;58696;52.134;5.500;2023-05-01T03:58:25;101710.41;;;8.18;85.48
71043;BME280;58696;52.134;5.500;2023-05-01T04:00:53;101705.88;;;8.12;85.55
71043;BME280;58696;52.134;5.500;2023-05-01T04:03:24;101711.53;;;8.16;85.58
71043;BME280;58696;52.134;5.500;2023-05-01T04:05:53;101714.38;;;8.13;85.23
71043;BME280;58696;52.134;5.500;2023-05-01T04:08:22;101708.72;;;8.09;84.93
71043;BME280;58696;52.134;5.500;2023-05-01T04:10:48;101714.91;;;8.16;85.23
71043;BME280;58696;52.134;5.500;2023-05-01T04:13:15;101703.91;;;8.24;85.32
71043;BME280;58696;52.134;5.500;2023-05-01T04:15:43;101703.63;;;8.27;84.97
71043;BME280;58696;52.134;5.500;2023-05-01T04:18:11;101709.41;;;8.29;84.42
71043;BME280;58696;52.134;5.500;2023-05-01T04:20:39;101712.63;;;8.31;83.75
71043;BME280;58696;52.134;5.500;2023-05-01T04:23:06;101709.94;;;8.33;83.77
71043;BME280;58696;52.134;5.500;2023-05-01T04:25:37;101706.25;;;8.35;83.91
71043;BME280;58696;52.134;5.500;2023-05-01T04:28:03;101712.59;;;8.41;84.61
71043;BME280;58696;52.134;5.500;2023-05-01T04:30:30;101705.59;;;8.43;85.17
71043;BME280;58696;52.134;5.500;2023-05-01T04:32:59;101698.03;;;8.41;84.99
71043;BME280;58696;52.134;5.500;2023-05-01T04:35:28;101694.81;;;8.39;85.36
71043;BME280;58696;52.134;5.500;2023-05-01T04:37:54;101695.22;;;8.35;85.18
71043;BME280;58696;52.134;5.500;2023-05-01T04:40:21;101691.84;;;8.34;84.99
71043;BME280;58696;52.134;5.500;2023-05-01T04:42:49;101695.38;;;8.33;84.65
71043;BME280;58696;52.134;5.500;2023-05-01T04:45:16;101691.63;;;8.28;84.44
71043;BME280;58696;52.134;5.500;2023-05-01T04:47:42;101698.22;;;8.30;84.52
71043;BME280;58696;52.134;5.500;2023-05-01T04:50:09;101695.38;;;8.33;83.99
71043;BME280;58696;52.134;5.500;2023-05-01T04:52:36;101689.84;;;8.38;83.97
71043;BME280;58696;52.134;5.500;2023-05-01T04:55:03;101693.69;;;8.42;83.62
71043;BME280;58696;52.134;5.500;2023-05-01T04:57:32;101698.41;;;8.47;83.12
71043;BME280;58696;52.134;5.500;2023-05-01T04:59:59;101702.28;;;8.51;82.69
71043;BME280;58696;52.134;5.500;2023-05-01T05:02:25;101705.06;;;8.57;82.61
71043;BME280;58696;52.134;5.500;2023-05-01T05:04:52;101705.25;;;8.64;82.18
71043;BME280;58696;52.134;5.500;2023-05-01T05:07:21;101717.50;;;8.70;82.05
71043;BME280;58696;52.134;5.500;2023-05-01T05:09:51;101703.59;;;8.73;81.24
71043;BME280;58696;52.134;5.500;2023-05-01T05:12:19;101704.91;;;8.77;80.69
71043;BME280;58696;52.134;5.500;2023-05-01T05:14:48;101699.97;;;8.83;80.94
71043;BME280;58696;52.134;5.500;2023-05-01T05:17:15;101704.81;;;8.86;81.28
71043;BME280;58696;52.134;5.500;2023-05-01T05:19:44;101700.53;;;8.95;81.86
71043;BME280;58696;52.134;5.500;2023-05-01T05:22:10;101695.47;;;9.03;82.04
71043;BME280;58696;52.134;5.500;2023-05-01T05:24:40;101700.00;;;9.09;80.69
71043;BME280;58696;52.134;5.500;2023-05-01T05:27:06;101699.84;;;9.11;79.51
71043;BME280;58696;52.134;5.500;2023-05-01T05:29:35;101692.31;;;9.09;79.20
71043;BME280;58696;52.134;5.500;2023-05-01T05:32:02;101701.44;;;9.12;79.18
71043;BME280;58696;52.134;5.500;2023-05-01T05:34:28;101710.91;;;9.11;79.04
71043;BME280;58696;52.134;5.500;2023-05-01T05:36:55;101704.53;;;9.15;79.53
71043;BME280;58696;52.134;5.500;2023-05-01T05:39:22;101699.59;;;9.22;79.23
71043;BME280;58696;52.134;5.500;2023-05-01T05:41:49;101688.88;;;9.27;79.33
71043;BME280;58696;52.134;5.500;2023-05-01T05:44:15;101691.78;;;9.32;78.38
71043;BME280;58696;52.134;5.500;2023-05-01T05:46:42;101692.78;;;9.39;77.98
71043;BME280;58696;52.134;5.500;2023-05-01T05:49:11;101685.59;;;9.42;77.38
71043;BME280;58696;52.134;5.500;2023-05-01T05:51:40;101681.28;;;9.43;77.17
71043;BME280;58696;52.134;5.500;2023-05-01T05:54:06;101680.00;;;9.47;77.49
71043;BME280;58696;52.134;5.500;2023-05-01T05:56:33;101684.06;;;9.58;77.20
71043;BME280;58696;52.134;5.500;2023-05-01T05:59:01;101685.22;;;9.71;77.68
71043;BME280;58696;52.134;5.500;2023-05-01T06:01:32;101693.59;;;9.82;77.95
71043;BME280;58696;52.134;5.500;2023-05-01T06:03:59;101682.72;;;9.88;78.59
71043;BME280;58696;52.134;5.500;2023-05-01T06:06:25;101681.28;;;9.93;79.09
71043;BME280;58696;52.134;5.500;2023-05-01T06:08:54;101675.84;;;9.96;79.08
71043;BME280;58696;52.134;5.500;2023-05-01T06:11:23;101683.09;;;10.01;78.99
71043;BME280;58696;52.134;5.500;2023-05-01T06:13:53;101674.75;;;10.07;79.15
71043;BME280;58696;52.134;5.500;2023-05-01T06:16:20;101684.06;;;10.16;78.33
71043;BME280;58696;52.134;5.500;2023-05-01T06:18:46;101679.59;;;10.18;77.66
71043;BME280;58696;52.134;5.500;2023-05-01T06:21:13;101673.97;;;10.23;78.10
71043;BME280;58696;52.134;5.500;2023-05-01T06:23:39;101677.03;;;10.26;78.20
71043;BME280;58696;52.134;5.500;2023-05-01T06:26:06;101674.16;;;10.30;78.37
71043;BME280;58696;52.134;5.500;2023-05-01T06:28:35;101674.16;;;10.30;78.37
71043;BME280;58696;52.134;5.500;2023-05-01T06:31:06;101671.59;;;10.38;77.95
71043;BME280;58696;52.134;5.500;2023-05-01T06:33:35;101662.94;;;10.47;77.40
71043;BME280;58696;52.134;5.500;2023-05-01T06:36:04;101671.91;;;10.59;76.39
71043;BME280;58696;52.134;5.500;2023-05-01T06:38:31;101674.50;;;10.51;74.95
71043;BME280;58696;52.134;5.500;2023-05-01T06:40:58;101671.91;;;10.59;75.19
71043;BME280;58696;52.134;5.500;2023-05-01T06:43:28;101666.44;;;10.78;75.24
71043;BME280;58696;52.134;5.500;2023-05-01T06:45:56;101666.75;;;10.92;74.30
71043;BME280;58696;52.134;5.500;2023-05-01T06:48:22;101668.38;;;10.93;72.77
71043;BME280;58696;52.134;5.500;2023-05-01T06:50:54;101664.47;;;11.05;73.97
71043;BME280;58696;52.134;5.500;2023-05-01T06:53:23;101661.56;;;11.08;74.09
71043;BME280;58696;52.134;5.500;2023-05-01T06:55:49;101668.34;;;11.09;74.32
71043;BME280;58696;52.134;5.500;2023-05-01T06:58:16;101673.13;;;11.12;74.34
71043;BME280;58696;52.134;5.500;2023-05-01T07:00:50;101672.31;;;11.20;74.32
71043;BME280;58696;52.134;5.500;2023-05-01T07:03:17;101661.16;;;11.36;73.71
71043;BME280;58696;52.134;5.500;2023-05-01T07:05:44;101662.53;;;11.54;72.68
71043;BME280;58696;52.134;5.500;2023-05-01T07:08:15;101666.53;;;11.65;71.45
71043;BME280;58696;52.134;5.500;2023-05-01T07:10:41;101661.78;;;11.77;71.84
71043;BME280;58696;52.134;5.500;2023-05-01T07:13:10;101662.19;;;11.97;70.04
71043;BME280;58696;52.134;5.500;2023-05-01T07:15:39;101650.25;;;11.96;70.74
71043;BME280;58696;52.134;5.500;2023-05-01T07:18:06;101656.00;;;12.06;70.17
71043;BME280;58696;52.134;5.500;2023-05-01T07:20:32;101657.22;;;12.18;68.91
71043;BME280;58696;52.134;5.500;2023-05-01T07:23:00;101654.56;;;12.49;70.00
71043;BME280;58696;52.134;5.500;2023-05-01T07:25:29;101659.03;;;12.70;68.83
71043;BME280;58696;52.134;5.500;2023-05-01T07:27:55;101655.94;;;12.75;68.18
71043;BME280;58696;52.134;5.500;2023-05-01T07:30:22;101663.69;;;12.75;69.66
71043;BME280;58696;52.134;5.500;2023-05-01T07:32:54;101657.59;;;12.53;69.60
71043;BME280;58696;52.134;5.500;2023-05-01T07:35:22;101658.00;;;12.42;69.47
71043;BME280;58696;52.134;5.500;2023-05-01T07:37:54;101656.50;;;12.47;69.02
71043;BME280;58696;52.134;5.500;2023-05-01T07:40:20;101657.13;;;12.49;69.34
71043;BME280;58696;52.134;5.500;2023-05-01T07:42:47;101662.88;;;12.36;67.88
71043;BME280;58696;52.134;5.500;2023-05-01T07:45:15;101657.13;;;12.49;68.83
71043;BME280;58696;52.134;5.500;2023-05-01T07:47:44;101661.34;;;12.65;69.20
71043;BME280;58696;52.134;5.500;2023-05-01T07:50:12;101663.06;;;12.73;69.15
71043;BME280;58696;52.134;5.500;2023-05-01T07:52:38;101660.84;;;12.84;67.64
71043;BME280;58696;52.134;5.500;2023-05-01T07:55:08;101658.44;;;12.83;68.11
71043;BME280;58696;52.134;5.500;2023-05-01T07:57:37;101647.78;;;12.86;68.15
71043;BME280;58696;52.134;5.500;2023-05-01T08:00:07;101645.47;;;13.06;66.57
71043;BME280;58696;52.134;5.500;2023-05-01T08:02:36;101649.03;;;13.05;67.35
71043;BME280;58696;52.134;5.500;2023-05-01T08:05:09;101650.91;;;12.96;66.85
71043;BME280;58696;52.134;5.500;2023-05-01T08:07:37;101652.75;;;13.02;67.21
71043;BME280;58696;52.134;5.500;2023-05-01T08:10:07;101652.16;;;13.00;66.87
71043;BME280;58696;52.134;5.500;2023-05-01T08:12:36;101656.06;;;13.11;68.05
71043;BME280;58696;52.134;5.500;2023-05-01T08:15:03;101661.56;;;13.08;68.51
71043;BME280;58696;52.134;5.500;2023-05-01T08:17:30;101661.81;;;12.98;68.29
71043;BME280;58696;52.134;5.500;2023-05-01T08:19:57;101663.78;;;12.96;68.82
71043;BME280;58696;52.134;5.500;2023-05-01T08:22:25;101653.09;;;12.99;68.65
71043;BME280;58696;52.134;5.500;2023-05-01T08:24:56;101664.78;;;12.95;69.09
71043;BME280;58696;52.134;5.500;2023-05-01T08:27:25;101664.03;;;12.86;68.98
71043;BME280;58696;52.134;5.500;2023-05-01T08:29:54;101657.47;;;12.84;69.22
71043;BME280;58696;52.134;5.500;2023-05-01T08:32:21;101654.81;;;12.92;69.34
71043;BME280;58696;52.134;5.500;2023-05-01T08:34:48;101650.38;;;13.01;68.28
71043;BME280;58696;52.134;5.500;2023-05-01T08:37:17;101657.22;;;13.08;68.51
71043;BME280;58696;52.134;5.500;2023-05-01T08:39:44;101659.38;;;13.05;68.85
71043;BME280;58696;52.134;5.500;2023-05-01T08:42:15;101656.25;;;12.95;69.93
71043;BME280;58696;52.134;5.500;2023-05-01T08:44:45;101661.13;;;12.89;69.60
71043;BME280;58696;52.134;5.500;2023-05-01T08:47:15;101663.53;;;12.91;70.34
71043;BME280;58696;52.134;5.500;2023-05-01T08:49:45;101663.53;;;12.91;70.36
71043;BME280;58696;52.134;5.500;2023-05-01T08:52:13;101662.19;;;12.95;70.89
71043;BME280;58696;52.134;5.500;2023-05-01T08:54:43;101661.22;;;12.96;71.29
71043;BME280;58696;52.134;5.500;2023-05-01T08:57:10;101667.00;;;12.98;71.05
71043;BME280;58696;52.134;5.500;2023-05-01T08:59:40;101660.75;;;12.93;71.64
71043;BME280;58696;52.134;5.500;2023-05-01T09:02:08;101664.50;;;12.90;71.50
71043;BME280;58696;52.134;5.500;2023-05-01T09:04:38;101665.66;;;12.87;71.22
71043;BME280;58696;52.134;5.500;2023-05-01T09:07:08;101667.88;;;12.90;71.83
71043;BME280;58696;52.134;5.500;2023-05-01T09:09:35;101668.16;;;12.96;71.28
71043;BME280;58696;52.134;5.500;2023-05-01T09:12:20;101669.84;;;12.88;71.48
71043;BME280;58696;52.134;5.500;2023-05-01T09:14:49;101666.28;;;12.89;70.52
71043;BME280;58696;52.134;5.500;2023-05-01T09:17:17;101660.31;;;12.89;71.42
71043;BME280;58696;52.134;5.500;2023-05-01T09:19:45;101663.06;;;12.87;69.97
71043;BME280;58696;52.134;5.500;2023-05-01T09:22:12;101667.94;;;12.82;70.27
71043;BME280;58696;52.134;5.500;2023-05-01T09:24:41;101669.84;;;12.88;70.39
71043;BME280;58696;52.134;5.500;2023-05-01T09:27:08;101665.84;;;13.01;71.32
71043;BME280;58696;52.134;5.500;2023-05-01T09:32:22;101665.03;;;13.15;69.59
71043;BME280;58696;52.134;5.500;2023-05-01T09:34:51;101668.19;;;13.25;70.29
71043;BME280;58696;52.134;5.500;2023-05-01T09:37:28;101667.91;;;13.50;70.52
71043;BME280;58696;52.134;5.500;2023-05-01T09:40:10;101668.44;;;13.60;68.56
71043;BME280;58696;52.134;5.500;2023-05-01T09:42:50;101674.31;;;13.54;67.60
71043;BME280;58696;52.134;5.500;2023-05-01T09:45:17;101668.31;;;13.68;67.99
71043;BME280;58696;52.134;5.500;2023-05-01T09:47:45;101671.22;;;13.80;67.75
71043;BME280;58696;52.134;5.500;2023-05-01T09:50:32;101675.66;;;14.07;66.68
71043;BME280;58696;52.134;5.500;2023-05-01T09:53:04;101683.38;;;14.22;66.12
71043;BME280;58696;52.134;5.500;2023-05-01T09:55:32;101677.25;;;14.30;64.81
71043;BME280;58696;52.134;5.500;2023-05-01T09:57:59;101680.59;;;14.45;63.74
71043;BME280;58696;52.134;5.500;2023-05-01T10:00:25;101683.63;;;14.49;62.61
71043;BME280;58696;52.134;5.500;2023-05-01T10:02:52;101676.72;;;14.56;62.67
71043;BME280;58696;52.134;5.500;2023-05-01T10:05:21;101673.25;;;14.70;62.88
71043;BME280;58696;52.134;5.500;2023-05-01T10:10:25;101675.91;;;14.83;61.31
71043;BME280;58696;52.134;5.500;2023-05-01T10:12:54;101670.38;;;14.86;60.63
71043;BME280;58696;52.134;5.500;2023-05-01T10:15:21;101662.63;;;14.86;61.38
71043;BME280;58696;52.134;5.500;2023-05-01T10:17:52;101666.78;;;14.87;61.71
71043;BME280;58696;52.134;5.500;2023-05-01T10:20:20;101664.56;;;15.12;59.65
71043;BME280;58696;52.134;5.500;2023-05-01T10:22:46;101662.81;;;15.26;60.80
71043;BME280;58696;52.134;5.500;2023-05-01T10:25:15;101658.16;;;15.56;61.41
71043;BME280;58696;52.134;5.500;2023-05-01T10:27:45;101669.78;;;15.67;60.88
71043;BME280;58696;52.134;5.500;2023-05-01T10:30:11;101667.19;;;15.67;60.33
71043;BME280;58696;52.134;5.500;2023-05-01T10:32:43;101665.41;;;15.74;59.74
71043;BME280;58696;52.134;5.500;2023-05-01T10:35:19;101675.81;;;15.87;58.73
71043;BME280;58696;52.134;5.500;2023-05-01T10:45:39;101675.28;;;16.25;57.14
71043;BME280;58696;52.134;5.500;2023-05-01T10:48:06;101678.28;;;16.22;58.68
71043;BME280;58696;52.134;5.500;2023-05-01T10:50:35;101678.06;;;16.23;58.52
71043;BME280;58696;52.134;5.500;2023-05-01T10:53:21;101677.69;;;16.40;57.83
71043;BME280;58696;52.134;5.500;2023-05-01T10:55:53;101677.09;;;16.38;56.59
71043;BME280;58696;52.134;5.500;2023-05-01T11:03:58;101677.84;;;16.25;56.58
71043;BME280;58696;52.134;5.500;2023-05-01T11:06:25;101686.66;;;16.24;57.15
71043;BME280;58696;52.134;5.500;2023-05-01T11:08:53;101683.28;;;16.37;56.42
71043;BME280;58696;52.134;5.500;2023-05-01T11:14:06;101683.66;;;16.67;55.49
71043;BME280;58696;52.134;5.500;2023-05-01T11:19:42;101687.84;;;16.68;53.80
71043;BME280;58696;52.134;5.500;2023-05-01T11:21:56;101678.69;;;16.72;54.22
71043;BME280;58696;52.134;5.500;2023-05-01T11:24:34;101683.69;;;16.80;53.09
71043;BME280;58696;52.134;5.500;2023-05-01T11:27:03;101682.44;;;16.96;54.74
71043;BME280;58696;52.134;5.500;2023-05-01T11:29:30;101682.63;;;17.01;54.86
71043;BME280;58696;52.134;5.500;2023-05-01T11:32:00;101687.03;;;17.00;54.28
71043;BME280;58696;52.134;5.500;2023-05-01T11:34:34;101681.03;;;17.00;52.32
71043;BME280;58696;52.134;5.500;2023-05-01T11:37:03;101679.84;;;16.96;52.44
71043;BME280;58696;52.134;5.500;2023-05-01T11:39:30;101681.44;;;16.90;50.75
71043;BME280;58696;52.134;5.500;2023-05-01T11:42:07;101675.66;;;16.95;50.33
71043;BME280;58696;52.134;5.500;2023-05-01T11:44:36;101679.78;;;17.16;51.77
71043;BME280;58696;52.134;5.500;2023-05-01T11:47:03;101679.56;;;17.30;53.27
71043;BME280;58696;52.134;5.500;2023-05-01T11:49:32;101679.41;;;17.19;49.52
71043;BME280;58696;52.134;5.500;2023-05-01T11:51:59;101675.59;;;17.15;51.66
71043;BME280;58696;52.134;5.500;2023-05-01T11:54:28;101674.38;;;17.24;50.73
71043;BME280;58696;52.134;5.500;2023-05-01T11:57:00;101677.16;;;17.29;50.84
71043;BME280;58696;52.134;5.500;2023-05-01T11:59:26;101677.81;;;17.56;51.92
71043;BME280;58696;52.134;5.500;2023-05-01T12:01:53;101684.72;;;17.82;53.74
71043;BME280;58696;52.134;5.500;2023-05-01T12:04:25;101680.44;;;18.01;50.88
71043;BME280;58696;52.134;5.500;2023-05-01T12:06:59;101679.75;;;18.12;50.91
71043;BME280;58696;52.134;5.500;2023-05-01T12:09:26;101675.63;;;18.54;51.01
71043;BME280;58696;52.134;5.500;2023-05-01T12:11:58;101679.84;;;18.74;48.82
71043;BME280;58696;52.134;5.500;2023-05-01T12:14:27;101681.19;;;19.01;50.35
71043;BME280;58696;52.134;5.500;2023-05-01T12:16:56;101690.66;;;18.96;48.54
71043;BME280;58696;52.134;5.500;2023-05-01T12:19:25;101674.59;;;19.17;47.63
71043;BME280;58696;52.134;5.500;2023-05-01T12:22:05;101678.56;;;19.01;47.56
71043;BME280;58696;52.134;5.500;2023-05-01T12:24:32;101678.13;;;19.41;48.44
71043;BME280;58696;52.134;5.500;2023-05-01T12:27:00;101681.38;;;19.18;48.74
71043;BME280;58696;52.134;5.500;2023-05-01T12:29:38;101683.47;;;18.91;49.42
71043;BME280;58696;52.134;5.500;2023-05-01T12:32:07;101682.34;;;19.05;49.92
71043;BME280;58696;52.134;5.500;2023-05-01T12:34:37;101685.00;;;18.55;48.04
71043;BME280;58696;52.134;5.500;2023-05-01T12:37:06;101689.97;;;18.38;50.54
71043;BME280;58696;52.134;5.500;2023-05-01T12:39:41;101691.97;;;18.05;49.80
71043;BME280;58696;52.134;5.500;2023-05-01T12:42:13;101689.53;;;17.72;49.20
71043;BME280;58696;52.134;5.500;2023-05-01T12:44:41;101694.44;;;17.61;50.57
71043;BME280;58696;52.134;5.500;2023-05-01T12:47:11;101693.69;;;17.41;50.22
71043;BME280;58696;52.134;5.500;2023-05-01T12:49:40;101692.63;;;17.04;50.73
71043;BME280;58696;52.134;5.500;2023-05-01T12:52:07;101699.63;;;17.03;51.15
71043;BME280;58696;52.134;5.500;2023-05-01T12:54:38;101699.84;;;16.89;51.06
71043;BME280;58696;52.134;5.500;2023-05-01T12:57:12;101692.25;;;16.87;54.33
71043;BME280;58696;52.134;5.500;2023-05-01T12:59:44;101691.03;;;16.90;55.21
71043;BME280;58696;52.134;5.500;2023-05-01T13:02:19;101703.03;;;16.64;56.56
71043;BME280;58696;52.134;5.500;2023-05-01T13:05:08;101693.84;;;16.62;56.06
71043;BME280;58696;52.134;5.500;2023-05-01T13:07:35;101691.84;;;16.44;56.60
71043;BME280;58696;52.134;5.500;2023-05-01T13:10:05;101693.25;;;16.40;57.65
71043;BME280;58696;52.134;5.500;2023-05-01T13:12:32;101692.03;;;16.36;57.35
71043;BME280;58696;52.134;5.500;2023-05-01T13:15:18;101682.47;;;16.43;58.61
71043;BME280;58696;52.134;5.500;2023-05-01T13:17:46;101693.25;;;16.33;57.82
71043;BME280;58696;52.134;5.500;2023-05-01T13:20:24;101688.84;;;16.20;59.38
71043;BME280;58696;52.134;5.500;2023-05-01T13:22:54;101693.03;;;16.15;58.66
71043;BME280;58696;52.134;5.500;2023-05-01T13:25:23;101688.63;;;16.09;59.67
71043;BME280;58696;52.134;5.500;2023-05-01T13:27:53;101695.41;;;16.10;61.79
71043;BME280;58696;52.134;5.500;2023-05-01T13:30:29;101690.25;;;16.10;61.84
71043;BME280;58696;52.134;5.500;2023-05-01T13:32:56;101685.00;;;16.03;61.84
71043;BME280;58696;52.134;5.500;2023-05-01T13:35:23;101683.03;;;15.98;60.62
71043;BME280;58696;52.134;5.500;2023-05-01T13:37:50;101687.59;;;15.96;61.05
71043;BME280;58696;52.134;5.500;2023-05-01T13:40:18;101696.38;;;15.89;61.78
71043;BME280;58696;52.134;5.500;2023-05-01T13:42:45;101696.16;;;15.77;64.19
71043;BME280;58696;52.134;5.500;2023-05-01T13:45:17;101700.53;;;15.83;64.02